sensor_id;sensor_type;location;lat;lon;timestamp;temperature;humidity
674;DHT22;319;48.764;9.174;2023-12-28T00:01:45;11.30;65.30
674;DHT22;319;48.764;9.174;2023-12-28T00:04:12;11.40;65.30
674;DHT22;319;48.764;9.174;2023-12-28T00:06:38;11.40;65.20
674;DHT22;319;48.764;9.174;2023-12-28T00:09:05;11.30;65.20
674;DHT22;319;48.764;9.174;2023-12-28T00:11:32;11.20;64.90
674;DHT22;319;48.764;9.174;2023-12-28T00:13:59;11.20;64.80
674;DHT22;319;48.764;9.174;2023-12-28T00:16:27;11.30;64.90
674;DHT22;319;48.764;9.174;2023-12-28T00:18:53;11.30;64.50
674;DHT22;319;48.764;9.174;2023-12-28T00:21:20;11.30;65.90
674;DHT22;319;48.764;9.174;2023-12-28T00:23:47;11.30;67.90
674;DHT22;319;48.764;9.174;2023-12-28T00:26:14;11.20;69.40
674;DHT22;319;48.764;9.174;2023-12-28T00:28:46;11.10;69.40
674;DHT22;319;48.764;9.174;2023-12-28T00:31:13;11.10;68.80
674;DHT22;319;48.764;9.174;2023-12-28T00:33:41;11.00;67.10
674;DHT22;319;48.764;9.174;2023-12-28T00:36:08;11.00;66.80
674;DHT22;319;48.764;9.174;2023-12-28T00:38:35;10.90;67.10
674;DHT22;319;48.764;9.174;2023-12-28T00:41:02;11.00;67.50
674;DHT22;319;48.764;9.174;2023-12-28T00:43:29;11.00;67.80
674;DHT22;319;48.764;9.174;2023-12-28T00:45:55;10.90;67.60
674;DHT22;319;48.764;9.174;2023-12-28T00:48:22;10.90;67.70
674;DHT22;319;48.764;9.174;2023-12-28T00:50:50;10.90;67.40
674;DHT22;319;48.764;9.174;2023-12-28T00:53:17;10.80;67.30
674;DHT22;319;48.764;9.174;2023-12-28T00:55:43;10.80;67.30
674;DHT22;319;48.764;9.174;2023-12-28T00:58:11;10.80;67.30
674;DHT22;319;48.764;9.174;2023-12-28T01:00:37;10.80;66.70
674;DHT22;319;48.764;9.174;2023-12-28T01:03:04;10.80;66.50
674;DHT22;319;48.764;9.174;2023-12-28T01:05:31;10.90;67.20
674;DHT22;319;48.764;9.174;2023-12-28T01:07:59;10.80;69.10
674;DHT22;319;48.764;9.174;2023-12-28T01:10:26;10.80;68.00
674;DHT22;319;48.764;9.174;2023-12-28T01:12:53;10.80;67.20
674;DHT22;319;48.764;9.174;2023-12-28T01:15:19;10.80;69.00
674;DHT22;319;48.764;9.174;2023-12-28T01:17:46;10.70;71.20
674;DHT22;319;48.764;9.174;2023-12-28T01:20:13;10.60;72.80
674;DHT22;319;48.764;9.174;2023-12-28T01:22:40;10.40;73.00
674;DHT22;319;48.764;9.174;2023-12-28T01:25:08;10.20;73.40
674;DHT22;319;48.764;9.174;2023-12-28T01:27:35;10.20;74.20
674;DHT22;319;48.764;9.174;2023-12-28T01:30:02;10.20;75.10
674;DHT22;319;48.764;9.174;2023-12-28T01:32:29;10.00;75.30
674;DHT22;319;48.764;9.174;2023-12-28T01:34:56;9.90;77.40
674;DHT22;319;48.764;9.174;2023-12-28T01:37:23;9.90;78.10
674;DHT22;319;48.764;9.174;2023-12-28T01:39:50;9.80;78.40
674;DHT22;319;48.764;9.174;2023-12-28T01:42:18;9.80;78.50
674;DHT22;319;48.764;9.174;2023-12-28T01:44:45;9.80;78.60
674;DHT22;319;48.764;9.174;2023-12-28T01:47:12;9.80;78.90
674;DHT22;319;48.764;9.174;2023-12-28T01:49:39;9.80;79.80
674;DHT22;319;48.764;9.174;2023-12-28T01:52:06;9.70;80.40
674;DHT22;319;48.764;9.174;2023-12-28T01:54:33;9.60;81.30
674;DHT22;319;48.764;9.174;2023-12-28T01:57:00;9.50;81.70
674;DHT22;319;48.764;9.174;2023-12-28T01:59:29;9.50;81.70
674;DHT22;319;48.764;9.174;2023-12-28T02:01:56;9.40;81.10
674;DHT22;319;48.764;9.174;2023-12-28T02:08:18;9.40;83.20
674;DHT22;319;48.764;9.174;2023-12-28T02:10:44;9.10;85.90
674;DHT22;319;48.764;9.174;2023-12-28T02:13:11;8.90;86.60
674;DHT22;319;48.764;9.174;2023-12-28T02:15:39;8.90;86.80
674;DHT22;319;48.764;9.174;2023-12-28T02:18:12;8.80;86.80
674;DHT22;319;48.764;9.174;2023-12-28T02:20:39;8.70;86.90
674;DHT22;319;48.764;9.174;2023-12-28T02:23:07;8.70;86.80
674;DHT22;319;48.764;9.174;2023-12-28T02:25:36;8.70;86.70
674;DHT22;319;48.764;9.174;2023-12-28T02:28:04;8.70;86.60
674;DHT22;319;48.764;9.174;2023-12-28T02:30:31;8.70;86.70
674;DHT22;319;48.764;9.174;2023-12-28T02:33:07;8.70;86.40
674;DHT22;319;48.764;9.174;2023-12-28T02:35:42;8.70;86.30
674;DHT22;319;48.764;9.174;2023-12-28T02:38:10;8.70;86.30
674;DHT22;319;48.764;9.174;2023-12-28T02:40:40;8.70;86.30
674;DHT22;319;48.764;9.174;2023-12-28T02:43:07;8.70;86.70
674;DHT22;319;48.764;9.174;2023-12-28T02:45:35;8.70;87.20
674;DHT22;319;48.764;9.174;2023-12-28T02:48:02;8.70;88.20
674;DHT22;319;48.764;9.174;2023-12-28T02:50:30;8.60;88.10
674;DHT22;319;48.764;9.174;2023-12-28T02:52:57;8.60;87.50
674;DHT22;319;48.764;9.174;2023-12-28T02:55:23;8.70;87.90
674;DHT22;319;48.764;9.174;2023-12-28T02:57:55;8.70;88.10
674;DHT22;319;48.764;9.174;2023-12-28T03:00:24;8.70;87.80
674;DHT22;319;48.764;9.174;2023-12-28T03:02:52;8.60;87.40
674;DHT22;319;48.764;9.174;2023-12-28T03:05:18;8.60;86.70
674;DHT22;319;48.764;9.174;2023-12-28T03:07:45;8.60;86.60
674;DHT22;319;48.764;9.174;2023-12-28T03:10:12;8.60;86.30
674;DHT22;319;48.764;9.174;2023-12-28T03:12:39;8.60;86.50
674;DHT22;319;48.764;9.174;2023-12-28T03:15:08;8.60;86.60
674;DHT22;319;48.764;9.174;2023-12-28T03:17:35;8.70;86.80
674;DHT22;319;48.764;9.174;2023-12-28T03:20:02;8.70;86.90
674;DHT22;319;48.764;9.174;2023-12-28T03:22:29;8.70;87.70
674;DHT22;319;48.764;9.174;2023-12-28T03:24:56;8.70;88.10
674;DHT22;319;48.764;9.174;2023-12-28T03:27:23;8.70;88.30
674;DHT22;319;48.764;9.174;2023-12-28T03:29:50;8.70;88.20
674;DHT22;319;48.764;9.174;2023-12-28T03:32:18;8.70;88.30
674;DHT22;319;48.764;9.174;2023-12-28T03:34:45;8.60;88.90
674;DHT22;319;48.764;9.174;2023-12-28T03:37:11;8.60;89.70
674;DHT22;319;48.764;9.174;2023-12-28T03:39:38;8.60;90.10
674;DHT22;319;48.764;9.174;2023-12-28T03:42:05;8.60;90.10
674;DHT22;319;48.764;9.174;2023-12-28T03:44:32;8.60;90.30
674;DHT22;319;48.764;9.174;2023-12-28T03:46:58;8.60;90.50
674;DHT22;319;48.764;9.174;2023-12-28T03:49:27;8.50;90.60
674;DHT22;319;48.764;9.174;2023-12-28T03:51:54;8.50;90.80
674;DHT22;319;48.764;9.174;2023-12-28T03:54:21;8.40;90.80
674;DHT22;319;48.764;9.174;2023-12-28T03:56:47;8.40;91.00
674;DHT22;319;48.764;9.174;2023-12-28T03:59:14;8.30;91.30
674;DHT22;319;48.764;9.174;2023-12-28T04:01:42;8.30;91.50
674;DHT22;319;48.764;9.174;2023-12-28T04:04:08;8.30;91.30
674;DHT22;319;48.764;9.174;2023-12-28T04:06:36;8.20;91.00
674;DHT22;319;48.764;9.174;2023-12-28T04:09:03;8.10;90.70
674;DHT22;319;48.764;9.174;2023-12-28T04:11:30;8.20;90.70
674;DHT22;319;48.764;9.174;2023-12-28T04:13:57;8.20;90.60
674;DHT22;319;48.764;9.174;2023-12-28T04:16:23;8.30;90.40
674;DHT22;319;48.764;9.174;2023-12-28T04:18:50;8.30;90.60
674;DHT22;319;48.764;9.174;2023-12-28T04:21:17;8.30;90.80
674;DHT22;319;48.764;9.174;2023-12-28T04:23:45;8.30;90.70
674;DHT22;319;48.764;9.174;2023-12-28T04:26:12;8.20;90.80
674;DHT22;319;48.764;9.174;2023-12-28T04:28:39;8.20;90.70
674;DHT22;319;48.764;9.174;2023-12-28T04:31:06;8.20;90.70
674;DHT22;319;48.764;9.174;2023-12-28T04:33:33;8.20;90.70
674;DHT22;319;48.764;9.174;2023-12-28T04:36:01;8.30;90.70
674;DHT22;319;48.764;9.174;2023-12-28T04:38:31;8.40;90.70
674;DHT22;319;48.764;9.174;2023-12-28T04:40:59;8.60;90.00
674;DHT22;319;48.764;9.174;2023-12-28T04:43:26;8.70;88.60
674;DHT22;319;48.764;9.174;2023-12-28T04:45:53;8.90;87.00
674;DHT22;319;48.764;9.174;2023-12-28T04:48:19;9.20;86.70
674;DHT22;319;48.764;9.174;2023-12-28T04:50:47;9.40;86.00
674;DHT22;319;48.764;9.174;2023-12-28T04:53:14;9.50;85.50
674;DHT22;319;48.764;9.174;2023-12-28T04:55:41;9.60;83.70
674;DHT22;319;48.764;9.174;2023-12-28T04:58:10;9.80;82.40
674;DHT22;319;48.764;9.174;2023-12-28T05:00:37;9.90;82.70
674;DHT22;319;48.764;9.174;2023-12-28T05:03:04;10.00;82.30
674;DHT22;319;48.764;9.174;2023-12-28T05:05:31;10.10;82.00
674;DHT22;319;48.764;9.174;2023-12-28T05:07:58;10.00;82.50
674;DHT22;319;48.764;9.174;2023-12-28T05:10:25;10.00;82.80
674;DHT22;319;48.764;9.174;2023-12-28T05:12:52;10.00;83.30
674;DHT22;319;48.764;9.174;2023-12-28T05:15:20;10.00;82.30
674;DHT22;319;48.764;9.174;2023-12-28T05:17:47;10.10;83.00
674;DHT22;319;48.764;9.174;2023-12-28T05:20:16;10.00;83.00
674;DHT22;319;48.764;9.174;2023-12-28T05:22:42;10.00;83.20
674;DHT22;319;48.764;9.174;2023-12-28T05:25:09;10.00;83.90
674;DHT22;319;48.764;9.174;2023-12-28T05:27:36;10.00;83.70
674;DHT22;319;48.764;9.174;2023-12-28T05:30:03;10.00;82.80
674;DHT22;319;48.764;9.174;2023-12-28T05:32:32;10.20;81.90
674;DHT22;319;48.764;9.174;2023-12-28T05:34:58;10.30;81.90
674;DHT22;319;48.764;9.174;2023-12-28T05:37:28;10.40;81.00
674;DHT22;319;48.764;9.174;2023-12-28T05:39:55;10.50;80.50
674;DHT22;319;48.764;9.174;2023-12-28T05:42:23;10.70;79.90
674;DHT22;319;48.764;9.174;2023-12-28T05:44:49;10.80;80.30
674;DHT22;319;48.764;9.174;2023-12-28T05:47:16;10.80;81.20
674;DHT22;319;48.764;9.174;2023-12-28T05:49:44;10.70;82.00
674;DHT22;319;48.764;9.174;2023-12-28T05:52:11;10.70;82.60
674;DHT22;319;48.764;9.174;2023-12-28T05:54:40;10.60;82.60
674;DHT22;319;48.764;9.174;2023-12-28T05:57:08;10.70;82.20
674;DHT22;319;48.764;9.174;2023-12-28T05:59:37;10.70;81.60
674;DHT22;319;48.764;9.174;2023-12-28T06:02:04;10.70;81.10
674;DHT22;319;48.764;9.174;2023-12-28T06:04:31;10.80;80.90
674;DHT22;319;48.764;9.174;2023-12-28T06:07:00;10.90;80.70
674;DHT22;319;48.764;9.174;2023-12-28T06:09:29;11.00;80.80
674;DHT22;319;48.764;9.174;2023-12-28T06:11:56;11.10;81.40
674;DHT22;319;48.764;9.174;2023-12-28T06:14:22;11.20;80.60
674;DHT22;319;48.764;9.174;2023-12-28T06:16:49;11.40;80.30
674;DHT22;319;48.764;9.174;2023-12-28T06:19:16;11.40;79.90
674;DHT22;319;48.764;9.174;2023-12-28T06:21:42;11.50;79.90
674;DHT22;319;48.764;9.174;2023-12-28T06:24:11;11.50;79.90
674;DHT22;319;48.764;9.174;2023-12-28T06:26:39;11.50;79.80
674;DHT22;319;48.764;9.174;2023-12-28T06:29:06;11.60;80.00
674;DHT22;319;48.764;9.174;2023-12-28T06:31:33;11.60;79.60
674;DHT22;319;48.764;9.174;2023-12-28T06:34:01;11.70;79.60
674;DHT22;319;48.764;9.174;2023-12-28T06:36:28;11.70;79.70
674;DHT22;319;48.764;9.174;2023-12-28T06:38:55;11.80;80.00
674;DHT22;319;48.764;9.174;2023-12-28T06:41:23;11.80;80.00
674;DHT22;319;48.764;9.174;2023-12-28T06:43:50;11.80;80.10
674;DHT22;319;48.764;9.174;2023-12-28T06:46:17;11.90;80.50
674;DHT22;319;48.764;9.174;2023-12-28T06:48:45;11.90;80.60
674;DHT22;319;48.764;9.174;2023-12-28T06:51:16;12.00;80.70
674;DHT22;319;48.764;9.174;2023-12-28T06:53:43;12.10;80.70
674;DHT22;319;48.764;9.174;2023-12-28T06:56:10;12.20;80.70
674;DHT22;319;48.764;9.174;2023-12-28T06:58:38;12.20;81.10
674;DHT22;319;48.764;9.174;2023-12-28T07:01:05;12.30;81.50
674;DHT22;319;48.764;9.174;2023-12-28T07:03:36;12.30;81.60
674;DHT22;319;48.764;9.174;2023-12-28T07:06:03;12.40;82.20
674;DHT22;319;48.764;9.174;2023-12-28T07:08:30;12.30;82.20
674;DHT22;319;48.764;9.174;2023-12-28T07:10:56;12.40;82.70
674;DHT22;319;48.764;9.174;2023-12-28T07:13:23;12.40;82.90
674;DHT22;319;48.764;9.174;2023-12-28T07:15:52;12.40;83.00
674;DHT22;319;48.764;9.174;2023-12-28T07:18:19;12.40;83.20
674;DHT22;319;48.764;9.174;2023-12-28T07:20:46;12.40;83.30
674;DHT22;319;48.764;9.174;2023-12-28T07:23:12;12.30;83.50
674;DHT22;319;48.764;9.174;2023-12-28T07:25:39;12.30;83.70
674;DHT22;319;48.764;9.174;2023-12-28T07:28:06;12.30;84.10
674;DHT22;319;48.764;9.174;2023-12-28T07:30:33;12.20;84.10
674;DHT22;319;48.764;9.174;2023-12-28T07:33:01;12.20;84.00
674;DHT22;319;48.764;9.174;2023-12-28T07:35:28;12.20;83.90
674;DHT22;319;48.764;9.174;2023-12-28T07:37:54;12.20;84.00
674;DHT22;319;48.764;9.174;2023-12-28T07:40:21;12.20;84.00
674;DHT22;319;48.764;9.174;2023-12-28T07:42:48;12.20;84.20
674;DHT22;319;48.764;9.174;2023-12-28T07:45:15;12.20;84.30
674;DHT22;319;48.764;9.174;2023-12-28T07:47:42;12.20;84.60
674;DHT22;319;48.764;9.174;2023-12-28T07:50:11;12.30;84.60
674;DHT22;319;48.764;9.174;2023-12-28T07:52:38;12.30;84.80
674;DHT22;319;48.764;9.174;2023-12-28T07:55:05;12.30;85.40
674;DHT22;319;48.764;9.174;2023-12-28T07:57:32;12.30;85.70
674;DHT22;319;48.764;9.174;2023-12-28T07:59:59;12.30;86.30
674;DHT22;319;48.764;9.174;2023-12-28T08:02:26;12.20;86.60
674;DHT22;319;48.764;9.174;2023-12-28T08:07:22;12.10;86.90
674;DHT22;319;48.764;9.174;2023-12-28T08:09:49;12.10;87.20
674;DHT22;319;48.764;9.174;2023-12-28T08:12:16;12.10;88.10
674;DHT22;319;48.764;9.174;2023-12-28T08:14:43;12.10;88.80
674;DHT22;319;48.764;9.174;2023-12-28T08:17:10;12.10;88.40
674;DHT22;319;48.764;9.174;2023-12-28T08:19:37;12.20;88.80
674;DHT22;319;48.764;9.174;2023-12-28T08:22:04;12.10;88.70
674;DHT22;319;48.764;9.174;2023-12-28T08:24:32;11.80;89.30
674;DHT22;319;48.764;9.174;2023-12-28T08:26:59;11.80;90.00
674;DHT22;319;48.764;9.174;2023-12-28T08:29:26;11.80;89.90
674;DHT22;319;48.764;9.174;2023-12-28T08:31:53;11.80;90.00
674;DHT22;319;48.764;9.174;2023-12-28T08:34:21;11.80;90.00
674;DHT22;319;48.764;9.174;2023-12-28T08:36:47;11.80;90.00
674;DHT22;319;48.764;9.174;2023-12-28T08:39:14;11.80;90.20
674;DHT22;319;48.764;9.174;2023-12-28T08:41:42;11.80;90.40
674;DHT22;319;48.764;9.174;2023-12-28T08:44:09;11.70;90.60
674;DHT22;319;48.764;9.174;2023-12-28T08:46:35;11.80;90.80
674;DHT22;319;48.764;9.174;2023-12-28T08:49:02;11.80;90.70
674;DHT22;319;48.764;9.174;2023-12-28T08:51:29;11.90;90.70
674;DHT22;319;48.764;9.174;2023-12-28T08:53:56;12.00;90.80
674;DHT22;319;48.764;9.174;2023-12-28T08:56:22;12.10;91.10
674;DHT22;319;48.764;9.174;2023-12-28T08:58:51;12.10;91.00
674;DHT22;319;48.764;9.174;2023-12-28T09:01:20;12.20;90.80
674;DHT22;319;48.764;9.174;2023-12-28T09:03:48;12.20;90.90
674;DHT22;319;48.764;9.174;2023-12-28T09:06:15;12.30;90.90
674;DHT22;319;48.764;9.174;2023-12-28T09:08:42;12.30;90.80
674;DHT22;319;48.764;9.174;2023-12-28T09:11:10;12.30;89.80
674;DHT22;319;48.764;9.174;2023-12-28T09:13:38;12.30;90.20
674;DHT22;319;48.764;9.174;2023-12-28T09:16:07;12.10;90.40
674;DHT22;319;48.764;9.174;2023-12-28T09:18:33;12.10;90.60
674;DHT22;319;48.764;9.174;2023-12-28T09:21:02;12.20;90.70
674;DHT22;319;48.764;9.174;2023-12-28T09:23:28;12.20;90.70
674;DHT22;319;48.764;9.174;2023-12-28T09:25:56;12.30;90.50
674;DHT22;319;48.764;9.174;2023-12-28T09:28:23;12.30;90.50
674;DHT22;319;48.764;9.174;2023-12-28T09:30:50;12.40;90.70
674;DHT22;319;48.764;9.174;2023-12-28T09:33:18;12.50;90.70
674;DHT22;319;48.764;9.174;2023-12-28T09:35:44;12.60;90.70
674;DHT22;319;48.764;9.174;2023-12-28T09:38:11;12.60;90.70
674;DHT22;319;48.764;9.174;2023-12-28T09:40:41;12.70;90.90
674;DHT22;319;48.764;9.174;2023-12-28T09:43:13;12.70;91.30
674;DHT22;319;48.764;9.174;2023-12-28T09:45:41;12.80;91.50
674;DHT22;319;48.764;9.174;2023-12-28T09:48:10;12.90;91.70
674;DHT22;319;48.764;9.174;2023-12-28T09:50:39;13.00;91.90
674;DHT22;319;48.764;9.174;2023-12-28T09:53:06;13.10;91.90
674;DHT22;319;48.764;9.174;2023-12-28T09:55:33;13.20;91.70
674;DHT22;319;48.764;9.174;2023-12-28T09:58:00;13.30;91.60
674;DHT22;319;48.764;9.174;2023-12-28T10:00:29;13.40;91.50
674;DHT22;319;48.764;9.174;2023-12-28T10:02:56;13.50;91.40
674;DHT22;319;48.764;9.174;2023-12-28T10:05:23;13.50;91.10
674;DHT22;319;48.764;9.174;2023-12-28T10:07:51;13.60;91.00
674;DHT22;319;48.764;9.174;2023-12-28T10:10:18;13.70;90.60
674;DHT22;319;48.764;9.174;2023-12-28T10:12:47;13.80;90.50
674;DHT22;319;48.764;9.174;2023-12-28T10:15:14;13.80;90.30
674;DHT22;319;48.764;9.174;2023-12-28T10:17:41;13.80;90.20
674;DHT22;319;48.764;9.174;2023-12-28T10:20:09;13.90;89.60
674;DHT22;319;48.764;9.174;2023-12-28T10:22:36;13.70;89.00
674;DHT22;319;48.764;9.174;2023-12-28T10:25:06;13.60;88.90
674;DHT22;319;48.764;9.174;2023-12-28T10:27:37;13.60;89.20
674;DHT22;319;48.764;9.174;2023-12-28T10:30:05;13.50;89.30
674;DHT22;319;48.764;9.174;2023-12-28T10:32:32;13.50;89.50
674;DHT22;319;48.764;9.174;2023-12-28T10:34:59;13.60;89.70
674;DHT22;319;48.764;9.174;2023-12-28T10:37:26;13.60;89.70
674;DHT22;319;48.764;9.174;2023-12-28T10:39:55;13.60;90.10
674;DHT22;319;48.764;9.174;2023-12-28T10:42:28;13.60;90.50
674;DHT22;319;48.764;9.174;2023-12-28T10:45:02;13.60;90.70
674;DHT22;319;48.764;9.174;2023-12-28T10:47:31;13.70;90.70
674;DHT22;319;48.764;9.174;2023-12-28T10:50:02;13.70;90.70
674;DHT22;319;48.764;9.174;2023-12-28T10:52:31;13.70;90.90
674;DHT22;319;48.764;9.174;2023-12-28T10:55:11;13.80;90.90
674;DHT22;319;48.764;9.174;2023-12-28T10:57:53;13.80;90.70
674;DHT22;319;48.764;9.174;2023-12-28T11:00:25;13.90;90.80
674;DHT22;319;48.764;9.174;2023-12-28T11:02:53;14.00;90.80
674;DHT22;319;48.764;9.174;2023-12-28T11:05:22;14.10;90.80
674;DHT22;319;48.764;9.174;2023-12-28T11:07:50;14.20;90.70
674;DHT22;319;48.764;9.174;2023-12-28T11:10:20;14.30;90.70
674;DHT22;319;48.764;9.174;2023-12-28T11:12:51;14.40;90.60
674;DHT22;319;48.764;9.174;2023-12-28T11:15:18;14.40;90.60
674;DHT22;319;48.764;9.174;2023-12-28T11:17:46;14.40;90.70
674;DHT22;319;48.764;9.174;2023-12-28T11:20:14;14.50;90.80
674;DHT22;319;48.764;9.174;2023-12-28T11:22:41;14.50;90.80
674;DHT22;319;48.764;9.174;2023-12-28T11:25:14;14.60;90.80
674;DHT22;319;48.764;9.174;2023-12-28T11:27:41;14.60;90.80
674;DHT22;319;48.764;9.174;2023-12-28T11:30:11;14.60;90.80
674;DHT22;319;48.764;9.174;2023-12-28T11:32:40;14.60;90.80
674;DHT22;319;48.764;9.174;2023-12-28T11:35:08;14.60;90.90
674;DHT22;319;48.764;9.174;2023-12-28T11:37:38;14.60;91.10
674;DHT22;319;48.764;9.174;2023-12-28T11:40:11;14.60;91.20
674;DHT22;319;48.764;9.174;2023-12-28T11:42:49;14.60;91.40
674;DHT22;319;48.764;9.174;2023-12-28T11:45:18;14.50;91.60
674;DHT22;319;48.764;9.174;2023-12-28T11:47:45;14.50;91.90
674;DHT22;319;48.764;9.174;2023-12-28T11:50:12;14.40;92.10
674;DHT22;319;48.764;9.174;2023-12-28T11:52:39;14.40;92.30
674;DHT22;319;48.764;9.174;2023-12-28T11:55:07;14.40;92.30
674;DHT22;319;48.764;9.174;2023-12-28T11:57:36;14.40;92.60
674;DHT22;319;48.764;9.174;2023-12-28T12:00:04;14.40;92.60
674;DHT22;319;48.764;9.174;2023-12-28T12:02:34;14.40;92.60
674;DHT22;319;48.764;9.174;2023-12-28T12:05:00;14.30;92.60
674;DHT22;319;48.764;9.174;2023-12-28T12:07:28;14.40;92.70
674;DHT22;319;48.764;9.174;2023-12-28T12:09:56;14.30;92.70
674;DHT22;319;48.764;9.174;2023-12-28T12:12:23;14.30;92.70
674;DHT22;319;48.764;9.174;2023-12-28T12:14:50;14.30;92.70
674;DHT22;319;48.764;9.174;2023-12-28T12:17:17;14.20;92.60
674;DHT22;319;48.764;9.174;2023-12-28T12:19:46;14.30;92.70
674;DHT22;319;48.764;9.174;2023-12-28T12:22:17;14.30;92.50
674;DHT22;319;48.764;9.174;2023-12-28T12:24:44;14.30;92.40
674;DHT22;319;48.764;9.174;2023-12-28T12:27:13;14.40;92.40
674;DHT22;319;48.764;9.174;2023-12-28T12:29:40;14.40;92.30
674;DHT22;319;48.764;9.174;2023-12-28T12:32:07;14.30;92.30
674;DHT22;319;48.764;9.174;2023-12-28T12:34:34;14.40;92.40
674;DHT22;319;48.764;9.174;2023-12-28T12:37:02;14.40;92.40
674;DHT22;319;48.764;9.174;2023-12-28T12:39:29;14.30;92.40
674;DHT22;319;48.764;9.174;2023-12-28T12:41:57;14.30;92.50
674;DHT22;319;48.764;9.174;2023-12-28T12:44:24;14.40;92.50
674;DHT22;319;48.764;9.174;2023-12-28T12:46:57;14.40;92.50
674;DHT22;319;48.764;9.174;2023-12-28T12:49:25;14.40;92.40
674;DHT22;319;48.764;9.174;2023-12-28T12:51:52;14.30;92.50
674;DHT22;319;48.764;9.174;2023-12-28T12:54:20;14.30;92.50
674;DHT22;319;48.764;9.174;2023-12-28T12:56:47;14.40;92.50
674;DHT22;319;48.764;9.174;2023-12-28T12:59:14;14.40;92.50
674;DHT22;319;48.764;9.174;2023-12-28T13:01:43;14.50;92.50
674;DHT22;319;48.764;9.174;2023-12-28T13:04:10;14.60;92.40
674;DHT22;319;48.764;9.174;2023-12-28T13:06:37;14.60;92.40
674;DHT22;319;48.764;9.174;2023-12-28T13:09:05;14.70;92.40
674;DHT22;319;48.764;9.174;2023-12-28T13:11:34;14.60;92.40
674;DHT22;319;48.764;9.174;2023-12-28T13:14:01;14.60;92.50
674;DHT22;319;48.764;9.174;2023-12-28T13:16:28;14.60;92.50
674;DHT22;319;48.764;9.174;2023-12-28T13:18:55;14.60;92.60
674;DHT22;319;48.764;9.174;2023-12-28T13:21:21;14.60;92.50
674;DHT22;319;48.764;9.174;2023-12-28T13:23:48;14.70;92.50
674;DHT22;319;48.764;9.174;2023-12-28T13:26:15;14.70;92.50
674;DHT22;319;48.764;9.174;2023-12-28T13:28:44;14.70;92.40
674;DHT22;319;48.764;9.174;2023-12-28T13:31:10;14.70;92.60
674;DHT22;319;48.764;9.174;2023-12-28T13:33:37;14.70;92.60
674;DHT22;319;48.764;9.174;2023-12-28T13:36:05;14.60;92.70
674;DHT22;319;48.764;9.174;2023-12-28T13:38:31;14.60;93.00
674;DHT22;319;48.764;9.174;2023-12-28T13:40:58;14.50;93.20
674;DHT22;319;48.764;9.174;2023-12-28T13:43:25;14.50;93.40
674;DHT22;319;48.764;9.174;2023-12-28T13:45:53;14.40;93.60
674;DHT22;319;48.764;9.174;2023-12-28T13:48:20;14.30;93.90
674;DHT22;319;48.764;9.174;2023-12-28T13:50:46;14.30;94.30
674;DHT22;319;48.764;9.174;2023-12-28T13:53:13;14.20;94.50
674;DHT22;319;48.764;9.174;2023-12-28T13:55:40;14.20;94.70
674;DHT22;319;48.764;9.174;2023-12-28T13:58:07;14.20;94.80
674;DHT22;319;48.764;9.174;2023-12-28T14:00:34;14.10;95.10
674;DHT22;319;48.764;9.174;2023-12-28T14:03:02;14.00;95.20
674;DHT22;319;48.764;9.174;2023-12-28T14:05:29;14.00;95.50
674;DHT22;319;48.764;9.174;2023-12-28T14:07:56;13.90;95.80
674;DHT22;319;48.764;9.174;2023-12-28T14:10:23;13.90;96.10
674;DHT22;319;48.764;9.174;2023-12-28T14:12:50;13.80;96.10
674;DHT22;319;48.764;9.174;2023-12-28T14:15:17;13.70;96.30
674;DHT22;319;48.764;9.174;2023-12-28T14:17:44;13.80;96.30
674;DHT22;319;48.764;9.174;2023-12-28T14:20:12;13.80;96.20
674;DHT22;319;48.764;9.174;2023-12-28T14:22:39;13.80;96.40
674;DHT22;319;48.764;9.174;2023-12-28T14:25:09;13.70;96.40
674;DHT22;319;48.764;9.174;2023-12-28T14:27:37;13.70;96.70
674;DHT22;319;48.764;9.174;2023-12-28T14:30:05;13.60;96.90
674;DHT22;319;48.764;9.174;2023-12-28T14:32:35;13.60;97.00
674;DHT22;319;48.764;9.174;2023-12-28T14:35:03;13.60;97.40
674;DHT22;319;48.764;9.174;2023-12-28T14:37:31;13.50;97.70
674;DHT22;319;48.764;9.174;2023-12-28T14:39:58;13.50;98.20
674;DHT22;319;48.764;9.174;2023-12-28T14:42:25;13.40;98.30
674;DHT22;319;48.764;9.174;2023-12-28T14:44:55;13.40;98.60
674;DHT22;319;48.764;9.174;2023-12-28T14:47:21;13.40;98.70
674;DHT22;319;48.764;9.174;2023-12-28T14:49:48;13.50;98.80
674;DHT22;319;48.764;9.174;2023-12-28T14:52:15;13.50;98.80
674;DHT22;319;48.764;9.174;2023-12-28T14:54:43;13.60;98.70
674;DHT22;319;48.764;9.174;2023-12-28T14:57:11;13.60;98.70
674;DHT22;319;48.764;9.174;2023-12-28T14:59:38;13.50;98.30
674;DHT22;319;48.764;9.174;2023-12-28T15:02:05;13.40;98.30
674;DHT22;319;48.764;9.174;2023-12-28T15:04:31;13.30;98.20
674;DHT22;319;48.764;9.174;2023-12-28T15:06:59;13.20;98.20
674;DHT22;319;48.764;9.174;2023-12-28T15:09:25;13.20;98.40
674;DHT22;319;48.764;9.174;2023-12-28T15:11:56;13.20;98.30
674;DHT22;319;48.764;9.174;2023-12-28T15:14:26;13.30;98.20
674;DHT22;319;48.764;9.174;2023-12-28T15:16:53;13.30;98.20
674;DHT22;319;48.764;9.174;2023-12-28T15:19:21;13.20;97.90
674;DHT22;319;48.764;9.174;2023-12-28T15:21:51;13.10;98.00
674;DHT22;319;48.764;9.174;2023-12-28T15:24:21;13.00;98.30
674;DHT22;319;48.764;9.174;2023-12-28T15:26:48;13.10;98.20
674;DHT22;319;48.764;9.174;2023-12-28T15:29:16;13.20;98.20
674;DHT22;319;48.764;9.174;2023-12-28T15:31:43;13.20;98.10
674;DHT22;319;48.764;9.174;2023-12-28T15:34:09;13.10;98.00
674;DHT22;319;48.764;9.174;2023-12-28T15:36:36;13.20;98.10
674;DHT22;319;48.764;9.174;2023-12-28T15:39:03;13.30;98.00
674;DHT22;319;48.764;9.174;2023-12-28T15:41:31;13.20;97.80
674;DHT22;319;48.764;9.174;2023-12-28T15:43:58;13.30;97.80
674;DHT22;319;48.764;9.174;2023-12-28T15:46:26;13.10;97.80
674;DHT22;319;48.764;9.174;2023-12-28T15:48:53;13.10;97.90
674;DHT22;319;48.764;9.174;2023-12-28T15:51:19;13.10;98.00
674;DHT22;319;48.764;9.174;2023-12-28T15:53:46;13.00;97.90
674;DHT22;319;48.764;9.174;2023-12-28T15:56:13;13.00;97.90
674;DHT22;319;48.764;9.174;2023-12-28T15:58:39;13.10;97.90
674;DHT22;319;48.764;9.174;2023-12-28T16:01:06;13.00;97.90
674;DHT22;319;48.764;9.174;2023-12-28T16:03:37;12.80;97.90
674;DHT22;319;48.764;9.174;2023-12-28T16:06:04;12.80;98.10
674;DHT22;319;48.764;9.174;2023-12-28T16:08:31;12.70;98.30
674;DHT22;319;48.764;9.174;2023-12-28T16:10:57;12.80;98.30
674;DHT22;319;48.764;9.174;2023-12-28T16:13:25;12.80;98.40
674;DHT22;319;48.764;9.174;2023-12-28T16:15:53;12.80;98.30
674;DHT22;319;48.764;9.174;2023-12-28T16:18:20;12.80;98.30
674;DHT22;319;48.764;9.174;2023-12-28T16:20:49;12.80;98.40
674;DHT22;319;48.764;9.174;2023-12-28T16:23:16;12.70;98.30
674;DHT22;319;48.764;9.174;2023-12-28T16:25:43;12.80;98.40
674;DHT22;319;48.764;9.174;2023-12-28T16:28:10;12.80;98.40
674;DHT22;319;48.764;9.174;2023-12-28T16:30:37;12.80;98.50
674;DHT22;319;48.764;9.174;2023-12-28T16:33:04;12.70;98.50
674;DHT22;319;48.764;9.174;2023-12-28T16:35:30;12.60;98.60
674;DHT22;319;48.764;9.174;2023-12-28T16:37:58;12.60;98.80
674;DHT22;319;48.764;9.174;2023-12-28T16:40:25;12.50;98.80
674;DHT22;319;48.764;9.174;2023-12-28T16:42:52;12.60;98.90
674;DHT22;319;48.764;9.174;2023-12-28T16:45:19;12.50;98.90
674;DHT22;319;48.764;9.174;2023-12-28T16:47:46;12.50;99.00